Terminal Aerodrome Forecast
Issued by NWS

Home | Current Version | Previous Version | Text Only | Print | Product List | Glossary On
Versions: 1 2 3 4 5 6 7 8 9 10 11 12 13 14 15 16 17 18 19 20 21 22 23 24 25
000
FTUS44 KMAF 222000 AAA
TAFINK
TAF AMD
KINK 222038Z 2221/2318 13009KT P6SM OVC080
     FM230900 11007KT P6SM BKN025
      TEMPO 2309/2313 6SM BR OVC015
     FM231500 14009KT P6SM BKN070=

USA.gov is the U.S. government's official web portal to all federal, state and local government web resources and services.